aviador You're here:

KDYR Decoded Metar

DYERSBURG in TN, USA
Report Time2018-07-16 07:56:00
UTC Time2018-07-16 08:37:19
Flight Rules vfr VFR
WindCalm
Visibility9999 m
Phenomena:N/A
Clouds:Scattered 048 Hf
Broken 070 Hf
Expected CloudBase > 400 ft AGL from Temp-Dew spread
Ceiling7,000 ft
Temp23°C (ISA +9)
Dew Point22°C (94% RH)
QNH1015 hPa
Density Alt1,627 ft
Elevation338 ft
Report Wrong Elevation
Raw Report
METAR KDYR 160756Z AUTO 00000KT 10SM SCT048 BKN070 23/22 A2998 RMK
AO2 LTG DSNT E AND SE SLP160 T02330222 PNO $=

Extra information for KDYR:More info

Metar Taf Metar & Taf Last 4 Metars F.Rules Stats Wind Profile Meteogram Temp Stats Airport Information Weather charts Add Link Nearby VenuesMetar ALERT Operation Metar Decoded Social comments

AIRNAV info for KDYR